sensor_id;sensor_type;location;lat;lon;timestamp;P1;durP1;ratioP1;P2;durP2;ratioP2
69847;SDS011;57143;55.940;37.496;2023-03-23T00:00:09;6.15;;;1.80;;
69847;SDS011;57143;55.940;37.496;2023-03-23T00:02:38;6.30;;;2.10;;
69847;SDS011;57143;55.940;37.496;2023-03-23T00:05:05;5.43;;;1.77;;
69847;SDS011;57143;55.940;37.496;2023-03-23T00:07:33;6.00;;;1.70;;
69847;SDS011;57143;55.940;37.496;2023-03-23T00:10:03;5.97;;;1.77;;
69847;SDS011;57143;55.940;37.496;2023-03-23T00:12:31;7.25;;;1.60;;
69847;SDS011;57143;55.940;37.496;2023-03-23T00:14:59;5.40;;;1.65;;
69847;SDS011;57143;55.940;37.496;2023-03-23T00:17:28;5.90;;;1.83;;
69847;SDS011;57143;55.940;37.496;2023-03-23T00:19:58;6.40;;;2.10;;
69847;SDS011;57143;55.940;37.496;2023-03-23T00:22:26;5.73;;;1.60;;
69847;SDS011;57143;55.940;37.496;2023-03-23T00:24:54;5.28;;;1.58;;
69847;SDS011;57143;55.940;37.496;2023-03-23T00:27:23;5.55;;;1.77;;
69847;SDS011;57143;55.940;37.496;2023-03-23T00:29:50;5.95;;;1.55;;
69847;SDS011;57143;55.940;37.496;2023-03-23T00:32:18;8.65;;;1.52;;
69847;SDS011;57143;55.940;37.496;2023-03-23T00:34:52;6.00;;;1.60;;
69847;SDS011;57143;55.940;37.496;2023-03-23T00:37:20;5.20;;;1.70;;
69847;SDS011;57143;55.940;37.496;2023-03-23T00:39:47;6.57;;;1.80;;
69847;SDS011;57143;55.940;37.496;2023-03-23T00:42:17;5.18;;;1.40;;
69847;SDS011;57143;55.940;37.496;2023-03-23T00:44:46;5.30;;;1.52;;
69847;SDS011;57143;55.940;37.496;2023-03-23T00:47:13;5.97;;;1.50;;
69847;SDS011;57143;55.940;37.496;2023-03-23T00:49:42;6.25;;;1.60;;
69847;SDS011;57143;55.940;37.496;2023-03-23T00:52:10;5.60;;;1.85;;
69847;SDS011;57143;55.940;37.496;2023-03-23T00:54:37;5.43;;;1.83;;
69847;SDS011;57143;55.940;37.496;2023-03-23T00:57:04;6.05;;;1.80;;
69847;SDS011;57143;55.940;37.496;2023-03-23T00:59:31;6.13;;;1.80;;
69847;SDS011;57143;55.940;37.496;2023-03-23T01:02:00;6.50;;;1.70;;
69847;SDS011;57143;55.940;37.496;2023-03-23T01:04:27;6.05;;;1.88;;
69847;SDS011;57143;55.940;37.496;2023-03-23T01:06:56;6.43;;;2.00;;
69847;SDS011;57143;55.940;37.496;2023-03-23T01:09:25;5.63;;;1.60;;
69847;SDS011;57143;55.940;37.496;2023-03-23T01:11:53;5.00;;;1.67;;
69847;SDS011;57143;55.940;37.496;2023-03-23T01:14:21;8.57;;;1.45;;
69847;SDS011;57143;55.940;37.496;2023-03-23T01:16:50;6.15;;;1.75;;
69847;SDS011;57143;55.940;37.496;2023-03-23T01:19:19;5.18;;;1.42;;
69847;SDS011;57143;55.940;37.496;2023-03-23T01:21:46;5.40;;;1.58;;
69847;SDS011;57143;55.940;37.496;2023-03-23T01:24:13;6.47;;;1.67;;
69847;SDS011;57143;55.940;37.496;2023-03-23T01:26:40;4.97;;;1.38;;
69847;SDS011;57143;55.940;37.496;2023-03-23T01:29:07;6.57;;;1.70;;
69847;SDS011;57143;55.940;37.496;2023-03-23T01:31:34;5.10;;;1.13;;
69847;SDS011;57143;55.940;37.496;2023-03-23T01:34:02;7.97;;;1.60;;
69847;SDS011;57143;55.940;37.496;2023-03-23T01:36:31;7.03;;;1.83;;
69847;SDS011;57143;55.940;37.496;2023-03-23T01:38:59;5.05;;;1.20;;
69847;SDS011;57143;55.940;37.496;2023-03-23T01:41:28;6.75;;;1.63;;
69847;SDS011;57143;55.940;37.496;2023-03-23T01:43:57;6.10;;;1.40;;
69847;SDS011;57143;55.940;37.496;2023-03-23T01:46:27;7.60;;;1.55;;
69847;SDS011;57143;55.940;37.496;2023-03-23T01:48:56;5.93;;;1.80;;
69847;SDS011;57143;55.940;37.496;2023-03-23T01:51:32;6.00;;;1.75;;
69847;SDS011;57143;55.940;37.496;2023-03-23T01:54:03;5.88;;;1.52;;
69847;SDS011;57143;55.940;37.496;2023-03-23T01:56:35;5.53;;;1.70;;
69847;SDS011;57143;55.940;37.496;2023-03-23T01:59:06;4.75;;;1.20;;
69847;SDS011;57143;55.940;37.496;2023-03-23T02:01:35;6.47;;;1.80;;
69847;SDS011;57143;55.940;37.496;2023-03-23T02:04:05;8.65;;;1.73;;
69847;SDS011;57143;55.940;37.496;2023-03-23T02:06:34;5.85;;;1.65;;
69847;SDS011;57143;55.940;37.496;2023-03-23T02:09:01;7.38;;;2.05;;
69847;SDS011;57143;55.940;37.496;2023-03-23T02:11:31;5.43;;;1.67;;
69847;SDS011;57143;55.940;37.496;2023-03-23T02:13:58;5.03;;;1.67;;
69847;SDS011;57143;55.940;37.496;2023-03-23T02:16:30;7.53;;;1.90;;
69847;SDS011;57143;55.940;37.496;2023-03-23T02:19:05;6.93;;;1.70;;
69847;SDS011;57143;55.940;37.496;2023-03-23T02:25:04;5.63;;;1.33;;
69847;SDS011;57143;55.940;37.496;2023-03-23T02:28:06;5.97;;;1.60;;
69847;SDS011;57143;55.940;37.496;2023-03-23T02:30:52;8.05;;;2.00;;
69847;SDS011;57143;55.940;37.496;2023-03-23T02:33:35;6.72;;;2.03;;
69847;SDS011;57143;55.940;37.496;2023-03-23T02:36:10;6.70;;;1.58;;
69847;SDS011;57143;55.940;37.496;2023-03-23T02:39:02;6.85;;;1.95;;
69847;SDS011;57143;55.940;37.496;2023-03-23T02:41:36;5.03;;;1.17;;
69847;SDS011;57143;55.940;37.496;2023-03-23T02:44:08;5.20;;;1.60;;
69847;SDS011;57143;55.940;37.496;2023-03-23T02:46:39;5.97;;;1.65;;
69847;SDS011;57143;55.940;37.496;2023-03-23T02:49:09;6.15;;;1.55;;
69847;SDS011;57143;55.940;37.496;2023-03-23T02:51:40;6.22;;;1.67;;
69847;SDS011;57143;55.940;37.496;2023-03-23T02:54:10;6.13;;;1.50;;
69847;SDS011;57143;55.940;37.496;2023-03-23T02:56:39;5.40;;;1.52;;
69847;SDS011;57143;55.940;37.496;2023-03-23T02:59:07;7.35;;;1.65;;
69847;SDS011;57143;55.940;37.496;2023-03-23T03:04:26;6.30;;;1.90;;
69847;SDS011;57143;55.940;37.496;2023-03-23T03:07:01;6.87;;;1.40;;
69847;SDS011;57143;55.940;37.496;2023-03-23T03:09:50;5.32;;;1.50;;
69847;SDS011;57143;55.940;37.496;2023-03-23T03:12:25;7.18;;;2.10;;
69847;SDS011;57143;55.940;37.496;2023-03-23T03:15:04;8.07;;;1.70;;
69847;SDS011;57143;55.940;37.496;2023-03-23T03:17:39;6.82;;;1.77;;
69847;SDS011;57143;55.940;37.496;2023-03-23T03:20:12;5.80;;;1.30;;
69847;SDS011;57143;55.940;37.496;2023-03-23T03:22:41;6.43;;;1.77;;
69847;SDS011;57143;55.940;37.496;2023-03-23T03:25:13;8.95;;;2.33;;
69847;SDS011;57143;55.940;37.496;2023-03-23T03:27:42;7.47;;;1.95;;
69847;SDS011;57143;55.940;37.496;2023-03-23T03:30:15;7.00;;;1.80;;
69847;SDS011;57143;55.940;37.496;2023-03-23T03:32:47;7.97;;;1.83;;
69847;SDS011;57143;55.940;37.496;2023-03-23T03:35:20;8.43;;;1.85;;
69847;SDS011;57143;55.940;37.496;2023-03-23T03:37:48;9.15;;;1.98;;
69847;SDS011;57143;55.940;37.496;2023-03-23T03:40:16;9.10;;;2.10;;
69847;SDS011;57143;55.940;37.496;2023-03-23T03:42:46;8.93;;;1.98;;
69847;SDS011;57143;55.940;37.496;2023-03-23T03:45:14;8.87;;;2.13;;
69847;SDS011;57143;55.940;37.496;2023-03-23T03:47:43;5.78;;;1.50;;
69847;SDS011;57143;55.940;37.496;2023-03-23T03:50:10;8.32;;;2.08;;
69847;SDS011;57143;55.940;37.496;2023-03-23T03:52:39;6.78;;;1.90;;
69847;SDS011;57143;55.940;37.496;2023-03-23T03:55:07;7.15;;;1.98;;
69847;SDS011;57143;55.940;37.496;2023-03-23T03:57:35;9.40;;;2.10;;
69847;SDS011;57143;55.940;37.496;2023-03-23T04:00:03;8.80;;;1.83;;
69847;SDS011;57143;55.940;37.496;2023-03-23T04:02:39;9.65;;;2.75;;
69847;SDS011;57143;55.940;37.496;2023-03-23T04:05:07;7.82;;;1.98;;
69847;SDS011;57143;55.940;37.496;2023-03-23T04:07:35;5.75;;;2.05;;
69847;SDS011;57143;55.940;37.496;2023-03-23T04:10:07;7.33;;;2.13;;
69847;SDS011;57143;55.940;37.496;2023-03-23T04:12:36;8.27;;;2.50;;
69847;SDS011;57143;55.940;37.496;2023-03-23T04:15:03;6.13;;;2.05;;
69847;SDS011;57143;55.940;37.496;2023-03-23T04:17:32;8.05;;;2.63;;
69847;SDS011;57143;55.940;37.496;2023-03-23T04:20:01;5.80;;;2.10;;
69847;SDS011;57143;55.940;37.496;2023-03-23T04:22:32;9.00;;;2.27;;
69847;SDS011;57143;55.940;37.496;2023-03-23T04:25:00;6.18;;;2.20;;
69847;SDS011;57143;55.940;37.496;2023-03-23T04:27:32;5.47;;;2.28;;
69847;SDS011;57143;55.940;37.496;2023-03-23T04:29:59;6.68;;;2.25;;
69847;SDS011;57143;55.940;37.496;2023-03-23T04:32:29;6.65;;;2.45;;
69847;SDS011;57143;55.940;37.496;2023-03-23T04:34:56;7.50;;;2.60;;
69847;SDS011;57143;55.940;37.496;2023-03-23T04:37:24;7.22;;;2.58;;
69847;SDS011;57143;55.940;37.496;2023-03-23T04:39:54;8.73;;;2.70;;
69847;SDS011;57143;55.940;37.496;2023-03-23T04:42:25;8.45;;;1.98;;
69847;SDS011;57143;55.940;37.496;2023-03-23T04:44:55;8.05;;;2.30;;
69847;SDS011;57143;55.940;37.496;2023-03-23T04:47:23;7.17;;;2.73;;
69847;SDS011;57143;55.940;37.496;2023-03-23T04:49:54;6.72;;;2.53;;
69847;SDS011;57143;55.940;37.496;2023-03-23T04:52:22;9.15;;;2.83;;
69847;SDS011;57143;55.940;37.496;2023-03-23T04:54:50;7.97;;;2.72;;
69847;SDS011;57143;55.940;37.496;2023-03-23T04:57:17;8.20;;;3.03;;
69847;SDS011;57143;55.940;37.496;2023-03-23T04:59:45;9.33;;;3.00;;
69847;SDS011;57143;55.940;37.496;2023-03-23T05:02:13;8.07;;;3.10;;
69847;SDS011;57143;55.940;37.496;2023-03-23T05:04:42;7.47;;;2.72;;
69847;SDS011;57143;55.940;37.496;2023-03-23T05:07:10;7.63;;;2.85;;
69847;SDS011;57143;55.940;37.496;2023-03-23T05:09:38;9.15;;;2.78;;
69847;SDS011;57143;55.940;37.496;2023-03-23T05:12:05;7.37;;;2.60;;
69847;SDS011;57143;55.940;37.496;2023-03-23T05:14:34;7.65;;;3.20;;
69847;SDS011;57143;55.940;37.496;2023-03-23T05:17:01;8.48;;;3.30;;
69847;SDS011;57143;55.940;37.496;2023-03-23T05:19:30;8.07;;;2.85;;
69847;SDS011;57143;55.940;37.496;2023-03-23T05:21:58;8.30;;;3.40;;
69847;SDS011;57143;55.940;37.496;2023-03-23T05:24:28;8.57;;;2.60;;
69847;SDS011;57143;55.940;37.496;2023-03-23T05:26:58;8.50;;;3.08;;
69847;SDS011;57143;55.940;37.496;2023-03-23T05:29:25;7.03;;;2.78;;
69847;SDS011;57143;55.940;37.496;2023-03-23T05:31:55;8.65;;;3.10;;
69847;SDS011;57143;55.940;37.496;2023-03-23T05:34:25;8.20;;;2.88;;
69847;SDS011;57143;55.940;37.496;2023-03-23T05:36:55;7.87;;;2.93;;
69847;SDS011;57143;55.940;37.496;2023-03-23T05:39:22;8.40;;;3.20;;
69847;SDS011;57143;55.940;37.496;2023-03-23T05:41:49;13.15;;;3.83;;
69847;SDS011;57143;55.940;37.496;2023-03-23T05:44:17;9.88;;;3.22;;
69847;SDS011;57143;55.940;37.496;2023-03-23T05:46:44;7.43;;;3.22;;
69847;SDS011;57143;55.940;37.496;2023-03-23T05:49:11;8.30;;;3.20;;
69847;SDS011;57143;55.940;37.496;2023-03-23T05:51:39;9.00;;;3.55;;
69847;SDS011;57143;55.940;37.496;2023-03-23T05:54:07;7.88;;;3.55;;
69847;SDS011;57143;55.940;37.496;2023-03-23T05:56:35;8.80;;;3.60;;
69847;SDS011;57143;55.940;37.496;2023-03-23T05:59:02;9.75;;;3.67;;
69847;SDS011;57143;55.940;37.496;2023-03-23T06:01:30;8.07;;;3.53;;
69847;SDS011;57143;55.940;37.496;2023-03-23T06:03:58;8.38;;;3.22;;
69847;SDS011;57143;55.940;37.496;2023-03-23T06:06:25;9.30;;;4.25;;
69847;SDS011;57143;55.940;37.496;2023-03-23T06:08:53;8.43;;;3.80;;
69847;SDS011;57143;55.940;37.496;2023-03-23T06:11:22;9.65;;;3.42;;
69847;SDS011;57143;55.940;37.496;2023-03-23T06:13:49;7.73;;;3.23;;
69847;SDS011;57143;55.940;37.496;2023-03-23T06:16:16;7.70;;;3.63;;
69847;SDS011;57143;55.940;37.496;2023-03-23T06:18:44;9.05;;;3.25;;
69847;SDS011;57143;55.940;37.496;2023-03-23T06:21:11;11.25;;;3.95;;
69847;SDS011;57143;55.940;37.496;2023-03-23T06:23:39;12.27;;;4.80;;
69847;SDS011;57143;55.940;37.496;2023-03-23T06:26:06;10.13;;;3.83;;
69847;SDS011;57143;55.940;37.496;2023-03-23T06:28:36;12.32;;;4.03;;
69847;SDS011;57143;55.940;37.496;2023-03-23T06:31:04;9.55;;;3.78;;
69847;SDS011;57143;55.940;37.496;2023-03-23T06:33:33;13.25;;;3.58;;
69847;SDS011;57143;55.940;37.496;2023-03-23T06:36:01;10.02;;;4.05;;
69847;SDS011;57143;55.940;37.496;2023-03-23T06:38:29;11.57;;;3.63;;
69847;SDS011;57143;55.940;37.496;2023-03-23T06:40:56;9.10;;;4.22;;
69847;SDS011;57143;55.940;37.496;2023-03-23T06:43:24;9.93;;;3.80;;
69847;SDS011;57143;55.940;37.496;2023-03-23T06:45:52;11.30;;;4.47;;
69847;SDS011;57143;55.940;37.496;2023-03-23T06:48:20;11.15;;;4.80;;
69847;SDS011;57143;55.940;37.496;2023-03-23T06:50:47;10.27;;;3.90;;
69847;SDS011;57143;55.940;37.496;2023-03-23T06:53:14;11.35;;;4.40;;
69847;SDS011;57143;55.940;37.496;2023-03-23T06:55:42;10.60;;;4.45;;
69847;SDS011;57143;55.940;37.496;2023-03-23T06:58:10;9.48;;;4.20;;
69847;SDS011;57143;55.940;37.496;2023-03-23T07:00:37;9.82;;;4.65;;
69847;SDS011;57143;55.940;37.496;2023-03-23T07:03:07;12.30;;;4.57;;
69847;SDS011;57143;55.940;37.496;2023-03-23T07:05:35;11.07;;;4.95;;
69847;SDS011;57143;55.940;37.496;2023-03-23T07:08:02;8.80;;;3.80;;
69847;SDS011;57143;55.940;37.496;2023-03-23T07:10:30;9.60;;;4.65;;
69847;SDS011;57143;55.940;37.496;2023-03-23T07:12:58;11.63;;;4.22;;
69847;SDS011;57143;55.940;37.496;2023-03-23T07:15:25;11.20;;;4.53;;
69847;SDS011;57143;55.940;37.496;2023-03-23T07:17:53;11.13;;;4.57;;
69847;SDS011;57143;55.940;37.496;2023-03-23T07:20:22;11.25;;;4.28;;
69847;SDS011;57143;55.940;37.496;2023-03-23T07:22:49;9.20;;;3.83;;
69847;SDS011;57143;55.940;37.496;2023-03-23T07:25:17;11.90;;;4.53;;
69847;SDS011;57143;55.940;37.496;2023-03-23T07:27:45;11.60;;;4.60;;
69847;SDS011;57143;55.940;37.496;2023-03-23T07:30:12;9.65;;;4.00;;
69847;SDS011;57143;55.940;37.496;2023-03-23T07:32:40;10.52;;;4.30;;
69847;SDS011;57143;55.940;37.496;2023-03-23T07:35:08;8.82;;;3.70;;
69847;SDS011;57143;55.940;37.496;2023-03-23T07:37:37;9.85;;;4.30;;
69847;SDS011;57143;55.940;37.496;2023-03-23T07:40:05;10.67;;;4.33;;
69847;SDS011;57143;55.940;37.496;2023-03-23T07:42:40;8.32;;;3.90;;
69847;SDS011;57143;55.940;37.496;2023-03-23T07:45:09;8.60;;;4.60;;
69847;SDS011;57143;55.940;37.496;2023-03-23T07:47:38;8.80;;;3.90;;
69847;SDS011;57143;55.940;37.496;2023-03-23T07:50:06;12.68;;;4.38;;
69847;SDS011;57143;55.940;37.496;2023-03-23T07:52:34;9.20;;;4.17;;
69847;SDS011;57143;55.940;37.496;2023-03-23T07:55:05;10.82;;;4.55;;
69847;SDS011;57143;55.940;37.496;2023-03-23T07:57:34;8.38;;;4.32;;
69847;SDS011;57143;55.940;37.496;2023-03-23T08:00:01;9.30;;;4.10;;
69847;SDS011;57143;55.940;37.496;2023-03-23T08:02:40;10.55;;;4.28;;
69847;SDS011;57143;55.940;37.496;2023-03-23T08:05:08;9.77;;;4.07;;
69847;SDS011;57143;55.940;37.496;2023-03-23T08:07:35;9.48;;;3.95;;
69847;SDS011;57143;55.940;37.496;2023-03-23T08:10:03;11.73;;;4.40;;
69847;SDS011;57143;55.940;37.496;2023-03-23T08:12:35;11.75;;;4.25;;
69847;SDS011;57143;55.940;37.496;2023-03-23T08:15:02;9.38;;;3.67;;
69847;SDS011;57143;55.940;37.496;2023-03-23T08:17:30;10.03;;;3.90;;
69847;SDS011;57143;55.940;37.496;2023-03-23T08:19:58;11.63;;;4.22;;
69847;SDS011;57143;55.940;37.496;2023-03-23T08:22:25;11.35;;;5.05;;
69847;SDS011;57143;55.940;37.496;2023-03-23T08:24:56;9.55;;;4.10;;
69847;SDS011;57143;55.940;37.496;2023-03-23T08:27:24;9.48;;;4.32;;
69847;SDS011;57143;55.940;37.496;2023-03-23T08:29:51;11.37;;;4.17;;
69847;SDS011;57143;55.940;37.496;2023-03-23T08:32:19;11.55;;;4.57;;
69847;SDS011;57143;55.940;37.496;2023-03-23T08:34:46;13.20;;;4.25;;
69847;SDS011;57143;55.940;37.496;2023-03-23T08:37:14;9.52;;;3.95;;
69847;SDS011;57143;55.940;37.496;2023-03-23T08:39:41;10.63;;;4.70;;
69847;SDS011;57143;55.940;37.496;2023-03-23T08:42:10;9.67;;;4.00;;
69847;SDS011;57143;55.940;37.496;2023-03-23T08:44:38;8.75;;;3.65;;
69847;SDS011;57143;55.940;37.496;2023-03-23T08:47:06;10.13;;;3.90;;
69847;SDS011;57143;55.940;37.496;2023-03-23T08:49:33;9.05;;;4.20;;
69847;SDS011;57143;55.940;37.496;2023-03-23T08:52:00;11.82;;;4.10;;
69847;SDS011;57143;55.940;37.496;2023-03-23T08:54:34;11.47;;;4.20;;
69847;SDS011;57143;55.940;37.496;2023-03-23T08:57:02;8.20;;;2.92;;
69847;SDS011;57143;55.940;37.496;2023-03-23T08:59:29;8.40;;;3.80;;
69847;SDS011;57143;55.940;37.496;2023-03-23T09:01:56;8.02;;;3.03;;
69847;SDS011;57143;55.940;37.496;2023-03-23T09:04:23;7.13;;;3.17;;
69847;SDS011;57143;55.940;37.496;2023-03-23T09:06:51;9.43;;;3.57;;
69847;SDS011;57143;55.940;37.496;2023-03-23T09:09:18;10.68;;;3.92;;
69847;SDS011;57143;55.940;37.496;2023-03-23T09:11:50;10.52;;;3.40;;
69847;SDS011;57143;55.940;37.496;2023-03-23T09:14:19;9.55;;;3.85;;
69847;SDS011;57143;55.940;37.496;2023-03-23T09:16:47;9.05;;;3.97;;
69847;SDS011;57143;55.940;37.496;2023-03-23T09:19:14;9.20;;;3.63;;
69847;SDS011;57143;55.940;37.496;2023-03-23T09:21:41;10.40;;;3.60;;
69847;SDS011;57143;55.940;37.496;2023-03-23T09:24:08;8.13;;;2.95;;
69847;SDS011;57143;55.940;37.496;2023-03-23T09:26:35;10.07;;;3.35;;
69847;SDS011;57143;55.940;37.496;2023-03-23T09:29:04;11.23;;;4.00;;
69847;SDS011;57143;55.940;37.496;2023-03-23T09:31:31;11.13;;;4.07;;
69847;SDS011;57143;55.940;37.496;2023-03-23T09:33:58;8.90;;;3.40;;
69847;SDS011;57143;55.940;37.496;2023-03-23T09:36:26;8.57;;;3.45;;
69847;SDS011;57143;55.940;37.496;2023-03-23T09:38:55;8.50;;;3.50;;
69847;SDS011;57143;55.940;37.496;2023-03-23T09:41:30;8.38;;;3.53;;
69847;SDS011;57143;55.940;37.496;2023-03-23T09:44:13;9.67;;;3.90;;
69847;SDS011;57143;55.940;37.496;2023-03-23T09:46:50;7.47;;;3.55;;
69847;SDS011;57143;55.940;37.496;2023-03-23T09:49:26;9.38;;;3.78;;
69847;SDS011;57143;55.940;37.496;2023-03-23T09:51:59;8.95;;;3.28;;
69847;SDS011;57143;55.940;37.496;2023-03-23T09:54:31;8.57;;;3.28;;
69847;SDS011;57143;55.940;37.496;2023-03-23T09:57:02;10.67;;;3.80;;
69847;SDS011;57143;55.940;37.496;2023-03-23T09:59:34;9.88;;;3.90;;
69847;SDS011;57143;55.940;37.496;2023-03-23T10:02:11;12.27;;;3.83;;
69847;SDS011;57143;55.940;37.496;2023-03-23T10:04:46;7.97;;;3.22;;
69847;SDS011;57143;55.940;37.496;2023-03-23T10:07:14;10.23;;;3.63;;
69847;SDS011;57143;55.940;37.496;2023-03-23T10:09:44;10.50;;;3.20;;
69847;SDS011;57143;55.940;37.496;2023-03-23T10:12:16;8.02;;;3.25;;
69847;SDS011;57143;55.940;37.496;2023-03-23T10:14:55;12.15;;;3.78;;
69847;SDS011;57143;55.940;37.496;2023-03-23T10:17:32;8.32;;;3.70;;
69847;SDS011;57143;55.940;37.496;2023-03-23T10:20:09;7.75;;;3.30;;
69847;SDS011;57143;55.940;37.496;2023-03-23T10:22:58;6.83;;;2.70;;
69847;SDS011;57143;55.940;37.496;2023-03-23T10:25:34;12.80;;;3.65;;
69847;SDS011;57143;55.940;37.496;2023-03-23T10:28:04;12.27;;;3.88;;
69847;SDS011;57143;55.940;37.496;2023-03-23T10:30:37;9.65;;;3.50;;
69847;SDS011;57143;55.940;37.496;2023-03-23T10:33:09;7.97;;;3.10;;
69847;SDS011;57143;55.940;37.496;2023-03-23T10:35:43;7.37;;;3.03;;
69847;SDS011;57143;55.940;37.496;2023-03-23T10:38:14;9.95;;;3.38;;
69847;SDS011;57143;55.940;37.496;2023-03-23T10:40:48;7.75;;;3.30;;
69847;SDS011;57143;55.940;37.496;2023-03-23T10:43:17;8.90;;;3.67;;
69847;SDS011;57143;55.940;37.496;2023-03-23T10:45:48;10.40;;;3.00;;
69847;SDS011;57143;55.940;37.496;2023-03-23T10:48:23;8.20;;;3.00;;
69847;SDS011;57143;55.940;37.496;2023-03-23T10:50:54;9.10;;;3.22;;
69847;SDS011;57143;55.940;37.496;2023-03-23T10:53:26;8.80;;;2.88;;
69847;SDS011;57143;55.940;37.496;2023-03-23T10:56:01;17.50;;;3.33;;
69847;SDS011;57143;55.940;37.496;2023-03-23T10:58:31;10.57;;;3.15;;
69847;SDS011;57143;55.940;37.496;2023-03-23T11:01:01;9.20;;;3.20;;
69847;SDS011;57143;55.940;37.496;2023-03-23T11:03:37;7.43;;;2.95;;
69847;SDS011;57143;55.940;37.496;2023-03-23T11:06:08;10.38;;;2.92;;
69847;SDS011;57143;55.940;37.496;2023-03-23T11:08:49;7.05;;;2.72;;
69847;SDS011;57143;55.940;37.496;2023-03-23T11:11:20;6.88;;;2.42;;
69847;SDS011;57143;55.940;37.496;2023-03-23T11:13:56;7.53;;;2.60;;
69847;SDS011;57143;55.940;37.496;2023-03-23T11:16:27;6.05;;;2.40;;
69847;SDS011;57143;55.940;37.496;2023-03-23T11:18:57;6.28;;;2.20;;
69847;SDS011;57143;55.940;37.496;2023-03-23T11:21:25;6.57;;;2.30;;
69847;SDS011;57143;55.940;37.496;2023-03-23T11:23:53;6.80;;;2.50;;
69847;SDS011;57143;55.940;37.496;2023-03-23T11:26:25;6.83;;;2.30;;
69847;SDS011;57143;55.940;37.496;2023-03-23T11:28:56;10.50;;;2.58;;
69847;SDS011;57143;55.940;37.496;2023-03-23T11:31:28;7.57;;;2.50;;
69847;SDS011;57143;55.940;37.496;2023-03-23T11:33:59;8.35;;;2.55;;
69847;SDS011;57143;55.940;37.496;2023-03-23T11:36:30;6.85;;;2.63;;
69847;SDS011;57143;55.940;37.496;2023-03-23T11:39:00;7.97;;;2.27;;
69847;SDS011;57143;55.940;37.496;2023-03-23T11:41:31;8.50;;;2.63;;
69847;SDS011;57143;55.940;37.496;2023-03-23T11:44:03;7.05;;;2.63;;
69847;SDS011;57143;55.940;37.496;2023-03-23T11:46:41;7.40;;;2.33;;
69847;SDS011;57143;55.940;37.496;2023-03-23T11:49:18;5.75;;;2.50;;
69847;SDS011;57143;55.940;37.496;2023-03-23T11:51:53;7.33;;;2.90;;
69847;SDS011;57143;55.940;37.496;2023-03-23T11:54:28;8.60;;;2.80;;
69847;SDS011;57143;55.940;37.496;2023-03-23T11:56:57;6.00;;;1.77;;
69847;SDS011;57143;55.940;37.496;2023-03-23T11:59:28;6.70;;;2.65;;
69847;SDS011;57143;55.940;37.496;2023-03-23T12:02:03;7.15;;;2.75;;
69847;SDS011;57143;55.940;37.496;2023-03-23T12:04:55;9.27;;;2.50;;
69847;SDS011;57143;55.940;37.496;2023-03-23T12:07:45;6.35;;;2.17;;
69847;SDS011;57143;55.940;37.496;2023-03-23T12:10:26;6.38;;;2.28;;
69847;SDS011;57143;55.940;37.496;2023-03-23T12:13:08;7.68;;;2.22;;
69847;SDS011;57143;55.940;37.496;2023-03-23T12:15:45;6.60;;;2.17;;
69847;SDS011;57143;55.940;37.496;2023-03-23T12:18:22;7.53;;;2.40;;
69847;SDS011;57143;55.940;37.496;2023-03-23T12:21:00;6.45;;;2.50;;
69847;SDS011;57143;55.940;37.496;2023-03-23T12:23:40;7.45;;;2.90;;
69847;SDS011;57143;55.940;37.496;2023-03-23T12:26:17;7.22;;;2.70;;
69847;SDS011;57143;55.940;37.496;2023-03-23T12:28:59;7.25;;;2.65;;
69847;SDS011;57143;55.940;37.496;2023-03-23T12:31:52;7.00;;;2.57;;
69847;SDS011;57143;55.940;37.496;2023-03-23T12:34:31;7.93;;;2.78;;
69847;SDS011;57143;55.940;37.496;2023-03-23T12:37:10;7.55;;;2.47;;
69847;SDS011;57143;55.940;37.496;2023-03-23T12:39:52;7.63;;;2.47;;
69847;SDS011;57143;55.940;37.496;2023-03-23T12:42:35;6.40;;;2.42;;
69847;SDS011;57143;55.940;37.496;2023-03-23T12:45:13;6.47;;;3.00;;
69847;SDS011;57143;55.940;37.496;2023-03-23T12:47:49;6.00;;;2.08;;
69847;SDS011;57143;55.940;37.496;2023-03-23T12:50:24;7.82;;;2.67;;
69847;SDS011;57143;55.940;37.496;2023-03-23T12:52:59;7.93;;;2.70;;
69847;SDS011;57143;55.940;37.496;2023-03-23T12:55:32;6.97;;;2.63;;
69847;SDS011;57143;55.940;37.496;2023-03-23T12:58:05;9.37;;;3.03;;
69847;SDS011;57143;55.940;37.496;2023-03-23T13:00:46;5.43;;;2.30;;
69847;SDS011;57143;55.940;37.496;2023-03-23T13:03:22;6.43;;;2.67;;
69847;SDS011;57143;55.940;37.496;2023-03-23T13:05:57;5.97;;;1.98;;
69847;SDS011;57143;55.940;37.496;2023-03-23T13:08:31;10.50;;;2.72;;
69847;SDS011;57143;55.940;37.496;2023-03-23T13:11:03;8.00;;;2.60;;
69847;SDS011;57143;55.940;37.496;2023-03-23T13:13:43;6.45;;;2.60;;
69847;SDS011;57143;55.940;37.496;2023-03-23T13:16:16;6.30;;;2.42;;
69847;SDS011;57143;55.940;37.496;2023-03-23T13:18:58;10.00;;;2.42;;
69847;SDS011;57143;55.940;37.496;2023-03-23T13:21:36;7.43;;;2.60;;
69847;SDS011;57143;55.940;37.496;2023-03-23T13:24:09;7.47;;;2.53;;
69847;SDS011;57143;55.940;37.496;2023-03-23T13:26:41;10.50;;;2.45;;
69847;SDS011;57143;55.940;37.496;2023-03-23T13:29:12;9.57;;;2.90;;
69847;SDS011;57143;55.940;37.496;2023-03-23T13:31:43;7.80;;;2.85;;
69847;SDS011;57143;55.940;37.496;2023-03-23T13:34:14;9.27;;;2.80;;
69847;SDS011;57143;55.940;37.496;2023-03-23T13:36:51;6.13;;;2.27;;
69847;SDS011;57143;55.940;37.496;2023-03-23T13:39:27;8.57;;;2.85;;
69847;SDS011;57143;55.940;37.496;2023-03-23T13:42:00;8.60;;;2.90;;
69847;SDS011;57143;55.940;37.496;2023-03-23T13:44:41;6.75;;;2.30;;
69847;SDS011;57143;55.940;37.496;2023-03-23T13:47:22;5.80;;;2.47;;
69847;SDS011;57143;55.940;37.496;2023-03-23T13:49:53;7.70;;;3.23;;
69847;SDS011;57143;55.940;37.496;2023-03-23T13:52:24;7.88;;;2.55;;
69847;SDS011;57143;55.940;37.496;2023-03-23T13:55:19;8.68;;;2.80;;
69847;SDS011;57143;55.940;37.496;2023-03-23T13:57:55;8.75;;;3.20;;
69847;SDS011;57143;55.940;37.496;2023-03-23T14:00:35;6.85;;;2.42;;
69847;SDS011;57143;55.940;37.496;2023-03-23T14:03:11;7.00;;;2.77;;
69847;SDS011;57143;55.940;37.496;2023-03-23T14:05:42;9.30;;;2.78;;
69847;SDS011;57143;55.940;37.496;2023-03-23T14:08:21;8.43;;;2.95;;
69847;SDS011;57143;55.940;37.496;2023-03-23T14:10:50;10.05;;;2.70;;
69847;SDS011;57143;55.940;37.496;2023-03-23T14:13:23;8.23;;;2.90;;
69847;SDS011;57143;55.940;37.496;2023-03-23T14:15:59;8.93;;;2.50;;
69847;SDS011;57143;55.940;37.496;2023-03-23T14:18:29;10.23;;;2.67;;
69847;SDS011;57143;55.940;37.496;2023-03-23T14:21:01;6.70;;;2.55;;
69847;SDS011;57143;55.940;37.496;2023-03-23T14:23:32;7.25;;;2.83;;
69847;SDS011;57143;55.940;37.496;2023-03-23T14:26:01;7.88;;;2.88;;
69847;SDS011;57143;55.940;37.496;2023-03-23T14:28:37;7.20;;;2.97;;
69847;SDS011;57143;55.940;37.496;2023-03-23T14:31:08;9.52;;;2.80;;
69847;SDS011;57143;55.940;37.496;2023-03-23T14:33:42;10.57;;;2.40;;
69847;SDS011;57143;55.940;37.496;2023-03-23T14:36:09;7.35;;;2.92;;
69847;SDS011;57143;55.940;37.496;2023-03-23T14:38:38;6.65;;;2.47;;
69847;SDS011;57143;55.940;37.496;2023-03-23T14:41:05;7.07;;;3.20;;
69847;SDS011;57143;55.940;37.496;2023-03-23T14:43:34;8.20;;;2.28;;
69847;SDS011;57143;55.940;37.496;2023-03-23T14:46:04;7.40;;;2.20;;
69847;SDS011;57143;55.940;37.496;2023-03-23T14:48:33;10.40;;;3.17;;
69847;SDS011;57143;55.940;37.496;2023-03-23T14:51:03;9.77;;;3.80;;
69847;SDS011;57143;55.940;37.496;2023-03-23T14:53:33;7.83;;;2.77;;
69847;SDS011;57143;55.940;37.496;2023-03-23T14:56:08;6.63;;;2.50;;
69847;SDS011;57143;55.940;37.496;2023-03-23T14:58:38;8.18;;;2.63;;
69847;SDS011;57143;55.940;37.496;2023-03-23T15:01:06;9.55;;;2.85;;